createdAt,value
2019-05-14T00:01:51.409Z,99.90
2019-05-14T00:04:22.004Z,99.90
2019-05-14T00:06:51.949Z,99.90
2019-05-14T00:09:22.586Z,99.90
2019-05-14T00:11:51.443Z,99.90
2019-05-14T00:14:22.111Z,99.90
2019-05-14T00:16:51.412Z,99.90
2019-05-14T00:19:21.562Z,99.90
2019-05-14T00:21:51.390Z,99.90
2019-05-14T00:24:21.706Z,99.90
2019-05-14T00:26:51.692Z,99.90
2019-05-14T00:29:22.032Z,99.90
2019-05-14T00:31:51.748Z,99.90
2019-05-14T00:34:21.471Z,99.90
2019-05-14T00:36:52.416Z,99.90
2019-05-14T00:39:22.936Z,99.90
2019-05-14T00:41:51.823Z,99.90
2019-05-14T00:44:21.560Z,99.90
2019-05-14T00:46:51.643Z,99.90
2019-05-14T00:49:21.230Z,99.90
2019-05-14T00:51:51.911Z,99.90
2019-05-14T00:54:21.619Z,99.90
2019-05-14T00:56:52.137Z,99.90
2019-05-14T00:59:41.681Z,99.90
2019-05-14T01:02:11.389Z,99.90
2019-05-14T01:04:42.869Z,99.90
2019-05-14T01:07:12.087Z,99.90
2019-05-14T01:09:42.061Z,99.90
2019-05-14T01:12:12.154Z,99.90
2019-05-14T01:14:42.488Z,99.90
2019-05-14T01:17:11.573Z,99.90
2019-05-14T01:19:42.481Z,99.90
2019-05-14T01:22:12.520Z,99.90
2019-05-14T01:24:41.947Z,99.90
2019-05-14T01:27:12.343Z,99.90
2019-05-14T01:29:42.491Z,99.90
2019-05-14T01:32:11.889Z,99.90
2019-05-14T01:34:42.032Z,99.90
2019-05-14T01:37:31.118Z,99.90
2019-05-14T01:40:01.167Z,99.90
2019-05-14T01:42:32.114Z,99.90
2019-05-14T01:45:02.595Z,99.90
2019-05-14T01:47:31.952Z,99.90
2019-05-14T01:50:02.131Z,99.90
2019-05-14T01:52:31.798Z,99.90
2019-05-14T01:55:02.146Z,99.90
2019-05-14T01:57:31.240Z,99.90
2019-05-14T02:00:02.265Z,99.90
2019-05-14T02:02:31.404Z,99.90
2019-05-14T02:05:02.039Z,99.90
2019-05-14T02:07:31.437Z,99.90
2019-05-14T02:10:01.200Z,99.90
2019-05-14T02:12:31.502Z,99.90
2019-05-14T02:15:01.910Z,99.90
2019-05-14T02:17:31.773Z,99.90
2019-05-14T02:20:21.576Z,99.90
2019-05-14T02:22:52.456Z,99.90
2019-05-14T02:25:21.683Z,99.90
2019-05-14T02:27:51.981Z,99.90
2019-05-14T02:30:52.469Z,99.90
2019-05-14T02:33:10.721Z,99.90
2019-05-14T02:35:39.947Z,99.90
2019-05-14T02:38:10.327Z,99.90
2019-05-14T02:40:40.417Z,99.90
2019-05-14T02:43:09.818Z,99.90
2019-05-14T02:45:58.669Z,99.90
2019-05-14T02:48:10.159Z,99.90
2019-05-14T02:50:39.579Z,99.90
2019-05-14T02:53:10.317Z,99.90
2019-05-14T02:55:39.327Z,99.90
2019-05-14T02:58:10.002Z,99.90
2019-05-14T03:00:40.849Z,99.90
2019-05-14T03:03:09.942Z,99.90
2019-05-14T03:05:40.108Z,99.90
2019-05-14T03:08:09.458Z,99.90
2019-05-14T03:10:40.268Z,99.90
2019-05-14T03:13:09.657Z,99.90
2019-05-14T03:15:39.214Z,99.90
2019-05-14T03:18:09.282Z,99.90
2019-05-14T03:20:39.212Z,99.90
2019-05-14T03:23:12.665Z,99.90
2019-05-14T03:26:00.585Z,99.90
2019-05-14T03:28:30.401Z,99.90
2019-05-14T03:31:03.063Z,99.90
2019-05-14T03:33:33.426Z,99.90
2019-05-14T03:36:08.437Z,99.90
2019-05-14T03:38:31.407Z,99.90
2019-05-14T03:41:00.642Z,99.90
2019-05-14T03:43:29.932Z,99.90
2019-05-14T03:45:59.536Z,99.90
2019-05-14T03:48:29.611Z,99.90
2019-05-14T03:51:00.185Z,99.90
2019-05-14T03:53:30.013Z,99.90
2019-05-14T03:56:00.227Z,99.90
2019-05-14T03:58:30.424Z,99.90
2019-05-14T04:01:01.072Z,99.90
2019-05-14T04:03:31.064Z,99.90
2019-05-14T04:06:00.412Z,99.90
2019-05-14T04:08:30.079Z,99.90
2019-05-14T04:10:59.427Z,99.90
2019-05-14T04:13:30.209Z,99.90
2019-05-14T04:16:00.346Z,99.90
2019-05-14T04:18:29.778Z,99.90
2019-05-14T04:20:59.674Z,99.90
2019-05-14T04:23:29.249Z,99.90
2019-05-14T04:26:00.545Z,99.90
2019-05-14T04:28:29.940Z,99.90
2019-05-14T04:30:59.621Z,99.90
2019-05-14T04:33:30.611Z,99.90
2019-05-14T04:36:00.199Z,99.90
2019-05-14T04:38:30.272Z,99.90
2019-05-14T04:41:00.154Z,99.90
2019-05-14T04:43:29.729Z,99.90
2019-05-14T04:45:59.549Z,99.90
2019-05-14T04:48:36.567Z,99.90
2019-05-14T04:51:00.395Z,99.90
2019-05-14T04:53:30.968Z,99.90
2019-05-14T04:56:00.423Z,99.90
2019-05-14T04:58:29.928Z,99.90
2019-05-14T05:01:00.455Z,99.90
2019-05-14T05:03:31.541Z,99.90
2019-05-14T05:06:00.548Z,99.90
2019-05-14T05:08:30.699Z,99.90
2019-05-14T05:11:02.022Z,99.90
2019-05-14T05:13:30.825Z,99.90
2019-05-14T05:16:14.404Z,99.90
2019-05-14T05:18:43.279Z,99.90
2019-05-14T05:21:12.400Z,99.90
2019-05-14T05:23:41.561Z,99.90
2019-05-14T05:26:10.697Z,99.90
2019-05-14T05:28:39.781Z,99.90
2019-05-14T05:31:09.449Z,99.90
2019-05-14T05:33:39.515Z,99.90
2019-05-14T05:36:09.383Z,99.90
2019-05-14T05:38:39.646Z,99.90
2019-05-14T05:41:09.174Z,99.90
2019-05-14T05:43:39.362Z,99.90
2019-05-14T05:46:08.884Z,99.90
2019-05-14T05:48:38.828Z,99.90
2019-05-14T05:51:09.176Z,99.90
2019-05-14T05:53:39.487Z,99.90
2019-05-14T05:56:09.128Z,99.90
2019-05-14T05:58:39.705Z,99.90
2019-05-14T06:01:09.831Z,99.90
2019-05-14T06:03:39.577Z,99.90
2019-05-14T06:06:13.639Z,99.90
2019-05-14T06:08:39.299Z,99.90
2019-05-14T06:11:08.561Z,99.90
2019-05-14T06:13:39.188Z,99.90
2019-05-14T06:16:09.590Z,99.90
2019-05-14T06:18:39.409Z,99.90
2019-05-14T06:21:09.202Z,99.90
2019-05-14T06:23:38.723Z,99.90
2019-05-14T06:26:11.433Z,99.90
2019-05-14T06:28:40.964Z,99.90
2019-05-14T06:31:09.872Z,99.90
2019-05-14T06:33:39.617Z,99.90
2019-05-14T06:36:08.937Z,99.90
2019-05-14T06:38:38.872Z,99.90
2019-05-14T06:41:08.619Z,99.90
2019-05-14T06:43:39.253Z,99.90
2019-05-14T06:46:09.286Z,99.90
2019-05-14T06:48:39.558Z,99.90
2019-05-14T06:51:09.079Z,99.90
2019-05-14T06:53:39.311Z,99.90
2019-05-14T06:56:08.678Z,99.90
2019-05-14T06:58:39.011Z,99.90
2019-05-14T07:01:09.659Z,99.90
2019-05-14T07:03:38.755Z,99.90
2019-05-14T07:06:09.076Z,99.90
2019-05-14T07:08:39.453Z,99.90
2019-05-14T07:11:08.694Z,99.90
2019-05-14T07:13:38.527Z,99.90
2019-05-14T07:16:09.026Z,98.30
2019-05-14T07:18:49.629Z,96.00
2019-05-14T07:21:08.899Z,92.40
2019-05-14T07:23:38.531Z,90.30
2019-05-14T07:26:08.400Z,88.70
2019-05-14T07:28:42.166Z,85.30
2019-05-14T07:31:09.861Z,81.70
2019-05-14T07:33:39.176Z,81.70
2019-05-14T07:36:08.786Z,80.50
2019-05-14T07:38:39.151Z,79.90
2019-05-14T07:41:09.327Z,80.90
2019-05-14T07:43:39.306Z,79.00
2019-05-14T07:46:08.671Z,77.00
2019-05-14T07:48:39.168Z,75.10
2019-05-14T07:51:09.111Z,72.20
2019-05-14T07:53:41.619Z,73.10
2019-05-14T07:56:09.434Z,72.00
2019-05-14T07:58:38.917Z,69.50
2019-05-14T08:01:09.384Z,69.50
2019-05-14T08:03:39.037Z,67.80
2019-05-14T08:06:08.446Z,66.00
2019-05-14T08:08:38.557Z,64.30
2019-05-14T08:11:08.619Z,64.10
2019-05-14T08:13:39.104Z,62.40
2019-05-14T08:16:08.944Z,61.40
2019-05-14T08:18:39.525Z,61.20
2019-05-14T08:21:09.499Z,61.40
2019-05-14T08:23:39.236Z,59.80
2019-05-14T08:26:08.900Z,58.70
2019-05-14T08:28:38.454Z,57.70
2019-05-14T08:31:09.405Z,57.70
2019-05-14T08:33:39.707Z,56.90
2019-05-14T08:36:09.004Z,57.10
2019-05-14T08:38:38.382Z,56.70
2019-05-14T08:41:08.456Z,56.30
2019-05-14T08:43:39.664Z,56.80
2019-05-14T08:46:08.373Z,55.70
2019-05-14T08:48:38.933Z,55.50
2019-05-14T08:51:09.211Z,53.90
2019-05-14T08:53:38.757Z,52.80
2019-05-14T08:56:08.752Z,52.90
2019-05-14T08:58:39.038Z,52.20
2019-05-14T09:01:08.386Z,52.50
2019-05-14T09:03:39.272Z,52.30
2019-05-14T09:06:09.171Z,52.60
2019-05-14T09:08:39.066Z,51.00
2019-05-14T09:11:09.988Z,49.70
2019-05-14T09:13:39.398Z,50.60
2019-05-14T09:16:09.200Z,50.20
2019-05-14T09:18:38.769Z,50.20
2019-05-14T09:21:08.649Z,50.70
2019-05-14T09:23:39.187Z,51.70
2019-05-14T09:26:09.630Z,51.20
2019-05-14T09:28:39.406Z,50.60
2019-05-14T09:31:08.917Z,49.20
2019-05-14T09:33:38.975Z,49.00
2019-05-14T09:36:17.991Z,49.50
2019-05-14T09:38:42.206Z,49.00
2019-05-14T09:41:14.899Z,48.00
2019-05-14T09:43:39.905Z,47.20
2019-05-14T09:46:09.161Z,46.10
2019-05-14T09:48:38.258Z,45.40
2019-05-14T09:51:09.233Z,45.90
2019-05-14T09:53:38.306Z,45.10
2019-05-14T09:56:09.074Z,45.70
2019-05-14T09:58:38.702Z,45.70
2019-05-14T10:01:08.530Z,45.20
2019-05-14T10:03:39.141Z,43.20
2019-05-14T10:06:09.678Z,44.20
2019-05-14T10:08:39.209Z,46.10
2019-05-14T10:11:08.284Z,44.40
2019-05-14T10:13:39.271Z,44.40
2019-05-14T10:16:09.526Z,44.70
2019-05-14T10:18:38.830Z,45.20
2019-05-14T10:21:08.646Z,44.00
2019-05-14T10:23:38.981Z,43.30
2019-05-14T10:26:09.174Z,44.10
2019-05-14T10:28:41.278Z,42.50
2019-05-14T10:31:10.448Z,40.50
2019-05-14T10:33:39.650Z,38.70
2019-05-14T10:36:09.211Z,39.10
2019-05-14T10:38:38.714Z,39.80
2019-05-14T10:41:09.064Z,39.70
2019-05-14T10:43:39.180Z,37.40
2019-05-14T10:46:09.125Z,36.60
2019-05-14T10:48:39.585Z,38.30
2019-05-14T10:51:09.834Z,38.80
2019-05-14T10:53:39.204Z,39.60
2019-05-14T10:56:09.880Z,40.20
2019-05-14T10:58:38.584Z,41.60
2019-05-14T11:01:11.367Z,41.80
2019-05-14T11:03:38.947Z,41.50
2019-05-14T11:06:11.362Z,40.20
2019-05-14T11:08:39.136Z,38.50
2019-05-14T11:11:10.610Z,39.90
2019-05-14T11:13:39.568Z,39.60
2019-05-14T11:16:08.875Z,39.60
2019-05-14T11:18:39.958Z,40.00
2019-05-14T11:21:21.507Z,39.80
2019-05-14T11:23:39.204Z,39.70
2019-05-14T11:26:09.214Z,38.80
2019-05-14T11:28:39.475Z,38.00
2019-05-14T11:31:09.280Z,36.70
2019-05-14T11:33:39.047Z,35.30
2019-05-14T11:36:09.336Z,35.90
2019-05-14T11:38:38.596Z,36.40
2019-05-14T11:41:09.617Z,38.10
2019-05-14T11:43:39.670Z,38.20
2019-05-14T11:46:09.174Z,37.80
2019-05-14T11:48:39.318Z,37.00
2019-05-14T11:51:09.188Z,38.20
2019-05-14T11:53:40.166Z,40.00
2019-05-14T11:56:09.094Z,38.60
2019-05-14T11:58:37.980Z,37.60
2019-05-14T12:01:09.803Z,38.50
2019-05-14T12:03:39.600Z,37.70
2019-05-14T12:06:09.866Z,37.90
2019-05-14T12:08:41.879Z,36.40
2019-05-14T12:11:10.075Z,37.30
2019-05-14T12:13:39.631Z,36.00
2019-05-14T12:16:08.741Z,36.20
2019-05-14T12:18:41.750Z,36.50
2019-05-14T12:21:08.973Z,36.80
2019-05-14T12:23:39.355Z,37.90
2019-05-14T12:26:09.497Z,38.40
2019-05-14T12:28:38.857Z,38.30
2019-05-14T12:31:09.245Z,36.90
2019-05-14T12:33:39.804Z,36.30
2019-05-14T12:36:10.299Z,36.70
2019-05-14T12:38:39.678Z,38.20
2019-05-14T12:41:09.333Z,37.80
2019-05-14T12:43:39.701Z,38.10
2019-05-14T12:46:10.430Z,37.70
2019-05-14T12:48:39.589Z,37.50
2019-05-14T12:51:09.146Z,36.80
2019-05-14T12:53:39.623Z,36.40
2019-05-14T12:56:08.917Z,36.40
2019-05-14T12:58:42.839Z,34.70
2019-05-14T13:01:09.504Z,35.50
2019-05-14T13:03:38.788Z,35.30
2019-05-14T13:06:10.115Z,34.10
2019-05-14T13:08:38.905Z,33.40
2019-05-14T13:11:09.763Z,33.00
2019-05-14T13:13:42.295Z,33.10
2019-05-14T13:16:09.091Z,33.80
2019-05-14T13:18:38.754Z,32.90
2019-05-14T13:21:07.836Z,32.00
2019-05-14T13:23:38.354Z,32.80
2019-05-14T13:26:10.389Z,32.40
2019-05-14T13:28:39.697Z,33.10
2019-05-14T13:31:08.910Z,32.60
2019-05-14T13:33:39.328Z,32.10
2019-05-14T13:36:08.373Z,31.80
2019-05-14T13:38:39.699Z,31.40
2019-05-14T13:41:08.699Z,30.00
2019-05-14T13:43:39.191Z,30.40
2019-05-14T13:46:10.489Z,30.40
2019-05-14T13:48:43.221Z,30.20
2019-05-14T13:51:09.418Z,30.60
2019-05-14T13:53:39.041Z,30.10
2019-05-14T13:56:09.134Z,31.00
2019-05-14T13:58:38.544Z,30.80
2019-05-14T14:01:09.936Z,30.30
2019-05-14T14:03:46.760Z,30.10
2019-05-14T14:06:10.315Z,30.80
2019-05-14T14:08:42.307Z,31.90
2019-05-14T14:11:12.663Z,31.20
2019-05-14T14:13:40.585Z,30.30
2019-05-14T14:16:14.579Z,29.80
2019-05-14T14:18:40.485Z,30.40
2019-05-14T14:21:09.588Z,30.40
2019-05-14T14:23:39.285Z,30.00
2019-05-14T14:26:09.413Z,30.20
2019-05-14T14:28:39.798Z,29.90
2019-05-14T14:31:10.985Z,29.60
2019-05-14T14:33:39.816Z,30.50
2019-05-14T14:36:09.114Z,30.80
2019-05-14T14:38:40.215Z,30.60
2019-05-14T14:41:09.999Z,31.10
2019-05-14T14:43:43.762Z,31.70
2019-05-14T14:46:14.043Z,32.20
2019-05-14T14:48:41.181Z,31.90
2019-05-14T14:51:10.100Z,31.20
2019-05-14T14:53:52.316Z,31.50
2019-05-14T14:56:09.980Z,31.20
2019-05-14T14:58:39.362Z,31.60
2019-05-14T15:01:08.934Z,31.40
2019-05-14T15:03:38.191Z,31.80
2019-05-14T15:06:09.711Z,31.00
2019-05-14T15:08:38.914Z,30.80
2019-05-14T15:11:08.867Z,31.20
2019-05-14T15:13:39.023Z,31.80
2019-05-14T15:16:13.287Z,32.20
2019-05-14T15:18:38.884Z,32.50
2019-05-14T15:21:09.735Z,32.10
2019-05-14T15:23:43.275Z,31.60
2019-05-14T15:26:12.078Z,31.70
2019-05-14T15:28:41.252Z,32.20
2019-05-14T15:31:10.172Z,31.20
2019-05-14T15:33:39.307Z,30.80
2019-05-14T15:36:09.067Z,30.80
2019-05-14T15:38:39.731Z,30.60
2019-05-14T15:41:13.262Z,30.50
2019-05-14T15:43:39.648Z,30.30
2019-05-14T15:46:08.874Z,30.70
2019-05-14T15:48:39.453Z,31.00
2019-05-14T15:51:11.535Z,30.70
2019-05-14T15:53:39.036Z,31.00
2019-05-14T15:56:08.228Z,31.30
2019-05-14T15:58:38.983Z,32.10
2019-05-14T16:01:09.937Z,32.60
2019-05-14T16:03:41.484Z,31.80
2019-05-14T16:06:09.579Z,31.90
2019-05-14T16:08:40.172Z,32.60
2019-05-14T16:11:11.330Z,32.50
2019-05-14T16:13:40.217Z,33.10
2019-05-14T16:16:10.674Z,32.60
2019-05-14T16:18:39.892Z,31.80
2019-05-14T16:21:10.605Z,32.80
2019-05-14T16:23:39.832Z,33.30
2019-05-14T16:26:08.960Z,33.40
2019-05-14T16:28:39.542Z,33.30
2019-05-14T16:31:08.810Z,33.10
2019-05-14T16:33:40.379Z,33.40
2019-05-14T16:36:08.922Z,33.30
2019-05-14T16:38:39.404Z,33.50
2019-05-14T16:41:08.625Z,33.00
2019-05-14T16:43:39.888Z,32.90
2019-05-14T16:46:09.458Z,33.10
2019-05-14T16:48:39.668Z,33.20
2019-05-14T16:51:09.181Z,33.60
2019-05-14T16:53:38.373Z,34.20
2019-05-14T16:56:08.313Z,34.10
2019-05-14T16:58:38.660Z,33.70
2019-05-14T17:01:09.792Z,34.30
2019-05-14T17:03:39.649Z,34.70
2019-05-14T17:06:11.376Z,34.50
2019-05-14T17:08:40.270Z,34.70
2019-05-14T17:11:09.504Z,35.10
2019-05-14T17:13:38.579Z,34.90
2019-05-14T17:16:08.523Z,35.60
2019-05-14T17:18:37.896Z,35.50
2019-05-14T17:21:09.217Z,35.90
2019-05-14T17:23:39.293Z,36.70
2019-05-14T17:26:09.002Z,36.90
2019-05-14T17:28:40.454Z,37.40
2019-05-14T17:31:08.779Z,37.90
2019-05-14T17:33:39.514Z,37.60
2019-05-14T17:36:09.501Z,37.10
2019-05-14T17:38:39.253Z,37.80
2019-05-14T17:41:09.422Z,38.10
2019-05-14T17:43:39.441Z,38.10
2019-05-14T17:46:10.125Z,38.10
2019-05-14T17:48:39.804Z,37.80
2019-05-14T17:51:09.450Z,37.80
2019-05-14T17:53:39.194Z,37.20
2019-05-14T17:56:08.874Z,37.50
2019-05-14T17:58:38.585Z,37.20
2019-05-14T18:01:09.098Z,37.20
2019-05-14T18:03:39.977Z,38.10
2019-05-14T18:06:09.363Z,39.10
2019-05-14T18:08:38.387Z,39.20
2019-05-14T18:11:08.865Z,39.70
2019-05-14T18:13:39.124Z,40.00
2019-05-14T18:16:09.125Z,40.20
2019-05-14T18:18:38.200Z,41.00
2019-05-14T18:21:09.425Z,40.90
2019-05-14T18:23:41.762Z,40.60
2019-05-14T18:26:09.476Z,41.00
2019-05-14T18:28:38.737Z,41.00
2019-05-14T18:31:09.405Z,41.60
2019-05-14T18:33:39.918Z,42.10
2019-05-14T18:36:09.706Z,42.80
2019-05-14T18:38:39.239Z,42.90
2019-05-14T18:41:08.640Z,42.50
2019-05-14T18:43:37.714Z,42.20
2019-05-14T18:46:08.490Z,42.20
2019-05-14T18:48:37.754Z,43.00
2019-05-14T18:51:08.944Z,43.30
2019-05-14T18:53:38.471Z,43.60
2019-05-14T18:56:19.377Z,43.70
2019-05-14T18:58:39.024Z,44.00
2019-05-14T19:01:08.253Z,44.40
2019-05-14T19:03:39.585Z,44.70
2019-05-14T19:06:08.236Z,45.30
2019-05-14T19:08:39.499Z,45.00
2019-05-14T19:11:08.307Z,45.50
2019-05-14T19:13:38.998Z,46.10
2019-05-14T19:16:08.314Z,46.40
2019-05-14T19:18:38.552Z,46.90
2019-05-14T19:21:08.854Z,47.30
2019-05-14T19:23:38.436Z,47.20
2019-05-14T19:26:09.563Z,47.70
2019-05-14T19:28:40.115Z,47.70
2019-05-14T19:31:09.357Z,47.80
2019-05-14T19:33:38.721Z,48.60
2019-05-14T19:36:08.864Z,48.80
2019-05-14T19:38:48.314Z,49.00
2019-05-14T19:41:23.219Z,49.40
2019-05-14T19:44:11.904Z,49.50
2019-05-14T19:46:41.081Z,49.90
2019-05-14T19:49:10.982Z,50.70
2019-05-14T19:51:40.904Z,51.50
2019-05-14T19:54:09.792Z,51.60
2019-05-14T19:56:51.805Z,51.90
2019-05-14T19:59:09.425Z,52.10
2019-05-14T20:01:38.681Z,52.70
2019-05-14T20:04:09.603Z,53.20
2019-05-14T20:06:41.005Z,53.20
2019-05-14T20:09:10.015Z,53.60
2019-05-14T20:11:39.890Z,54.10
2019-05-14T20:14:08.902Z,55.10
2019-05-14T20:16:39.998Z,55.30
2019-05-14T20:19:11.001Z,55.70
2019-05-14T20:22:32.752Z,56.00
2019-05-14T20:25:01.760Z,56.50
2019-05-14T20:27:30.635Z,57.10
2019-05-14T20:29:59.829Z,57.30
2019-05-14T20:32:28.779Z,57.70
2019-05-14T20:34:58.018Z,57.90
2019-05-14T20:37:28.997Z,58.20
2019-05-14T20:39:59.101Z,58.40
2019-05-14T20:42:28.973Z,58.80
2019-05-14T20:44:58.208Z,59.10
2019-05-14T20:47:28.183Z,59.40
2019-05-14T20:50:49.040Z,59.50
2019-05-14T20:53:18.702Z,59.90
2019-05-14T20:55:47.707Z,60.10
2019-05-14T20:58:19.595Z,60.90
2019-05-14T21:00:48.481Z,61.00
2019-05-14T21:03:18.674Z,61.20
2019-05-14T21:05:49.078Z,61.30
2019-05-14T21:08:18.813Z,61.40
2019-05-14T21:10:49.352Z,61.90
2019-05-14T21:13:18.697Z,62.20
2019-05-14T21:15:48.295Z,62.80
2019-05-14T21:18:18.892Z,63.20
2019-05-14T21:20:48.821Z,63.70
2019-05-14T21:23:18.417Z,63.90
2019-05-14T21:29:16.313Z,64.40
2019-05-14T21:31:45.179Z,64.80
2019-05-14T21:34:14.321Z,65.00
2019-05-14T21:36:45.876Z,65.50
2019-05-14T21:39:14.728Z,65.70
2019-05-14T21:41:43.597Z,66.00
2019-05-14T21:44:12.397Z,66.20
2019-05-14T21:46:41.201Z,66.40
2019-05-14T21:49:39.014Z,66.60
2019-05-14T21:52:09.029Z,66.90
2019-05-14T21:54:39.593Z,67.00
2019-05-14T21:57:11.669Z,67.30
2019-05-14T21:59:39.337Z,67.60
2019-05-14T22:02:08.864Z,68.10
2019-05-14T22:04:38.503Z,68.60
2019-05-14T22:07:09.064Z,68.60
2019-05-14T22:09:58.288Z,69.00
2019-05-14T22:12:48.812Z,69.10
2019-05-14T22:15:18.549Z,69.50
2019-05-14T22:17:49.157Z,69.70
2019-05-14T22:20:19.180Z,69.90
2019-05-14T22:22:48.501Z,70.30
2019-05-14T22:25:39.156Z,70.60
2019-05-14T22:28:15.001Z,71.10
2019-05-14T22:30:39.448Z,71.30
2019-05-14T22:33:28.461Z,71.90
2019-05-14T22:35:58.110Z,72.30
2019-05-14T22:38:29.366Z,72.70
2019-05-14T22:40:59.192Z,73.50
2019-05-14T22:43:28.788Z,74.00
2019-05-14T22:45:59.050Z,74.30
2019-05-14T22:48:28.185Z,74.50
2019-05-14T22:51:10.952Z,74.80
2019-05-14T22:53:39.873Z,76.20
2019-05-14T22:56:08.742Z,76.30
2019-05-14T22:58:38.255Z,76.70
2019-05-14T23:01:14.903Z,77.30
2019-05-14T23:03:39.589Z,77.90
2019-05-14T23:06:09.120Z,78.30
2019-05-14T23:08:39.161Z,79.40
2019-05-14T23:11:08.780Z,80.30
2019-05-14T23:13:39.151Z,81.10
2019-05-14T23:16:08.352Z,82.20
2019-05-14T23:18:38.028Z,83.00
2019-05-14T23:21:13.173Z,84.00
2019-05-14T23:23:41.958Z,85.00
2019-05-14T23:26:11.103Z,86.20
2019-05-14T23:28:45.470Z,86.30
2019-05-14T23:31:10.499Z,87.20
2019-05-14T23:33:39.347Z,88.30
2019-05-14T23:36:08.767Z,89.50
2019-05-14T23:38:38.708Z,90.30
2019-05-14T23:41:08.693Z,90.70
2019-05-14T23:43:39.186Z,90.90
2019-05-14T23:46:09.373Z,91.50
2019-05-14T23:48:39.422Z,92.40
2019-05-14T23:51:08.724Z,92.80
2019-05-14T23:53:39.256Z,93.40
2019-05-14T23:56:08.813Z,94.40
2019-05-14T23:58:37.797Z,95.50
